KTVL/TVL METAR and TAF weather

Enter ICAO airport designator
Station Type Date Time Source
KTVL METAR 2022/06/28 08:53 UTC NOAA

KTVL 280853Z AUTO 20003KT 10SM CLR 08/M02 A3037 RMK AO2 SLP223 T00781022 57001


Station Type Date Time Source
KTVL Decoded METAR 2022/06/28 08:53 UTC NOAA

SOUTH LAKE TAHOE AIRPORT, CA, United States (KTVL) 38-53N 119-59W 1925M
Jun 28, 2022 - 04:53 AM EDT / 2022.06.28 0853 UTC
Wind: from the SSW (200 degrees) at 3 MPH (3 KT):0
Visibility: 10 mile(s):0
Sky conditions: clear
Temperature: 46.0 F (7.8 C)
Dew Point: 28.0 F (-2.2 C)
Relative Humidity: 49%
Pressure (altimeter): 30.37 in. Hg (1028 hPa)
Pressure tendency: 0.00 inches (0.1 hPa) lower than three hours ago
ob: KTVL 280853Z AUTO 20003KT 10SM CLR 08/M02 A3037 RMK AO2 SLP223 T00781022 57001
cycle: 9

Station Type Date Time Source
KTVL TAF 2022/06/28 06:22 UTC NOAA

TAF KTVL 280520Z 2806/2906 19005KT P6SM SKC
FM281700 19012KT P6SM SKC
FM282100 21013G28KT P6SM SKC
FM290300 20006KT P6SM SKC

Example: see airport list